YBBN/BNE METAR and TAF weather

Enter ICAO airport designator
Station Type Date Time Source
YBBN METAR 2019/02/17 07:30 UTC NOAA

YBBN 170730Z 12009KT 9999 FEW040 26/16 Q1011 NOSIG


Station Type Date Time Source
YBBN Decoded METAR 2019/02/17 07:30 UTC NOAA

Brisbane Airport M. O, Australia (YBBN) 27-23S 153-06E 5M
Feb 17, 2019 - 02:30 AM EST / 2019.02.17 0730 UTC
Wind: from the ESE (120 degrees) at 10 MPH (9 KT):0
Visibility: greater than 7 mile(s):0
Sky conditions: mostly clear
Temperature: 78 F (26 C)
Dew Point: 60 F (16 C)
Relative Humidity: 54%
Pressure (altimeter): 29.85 in. Hg (1011 hPa)
ob: YBBN 170730Z 12009KT 9999 FEW040 26/16 Q1011 NOSIG
cycle: 7

Station Type Date Time Source
YBBN TAF 2019/02/17 06:33 UTC NOAA

TAF YBBN 170507Z 1706/1812 12012KT 9999 FEW045
FM171200 19007KT 9999 SCT035
FM172300 13010KT 9999 FEW040
FM180100 10012KT 9999 FEW045


Example: see airport list